Time;durP1;ratioP1;P1;durP2;ratioP2;P2;SDS_P1;SDS_P2;PMS_P1;PMS_P2;Temp;Humidity;BMP_temperature;BMP_pressure;BME280_temperature;BME280_humidity;BME280_pressure;Samples;Min_cycle;Max_cycle;Signal;HPM_P1;HPM_P2
2022/01/26 00:00:29;;;;;;;73.22;28.23;;;;;;;2.11;99.83;101974.56;5108554;28;20052;-92
2022/01/26 00:05:53;;;;;;;66.97;25.92;;;;;;;2.10;100.00;101978.03;5104667;28;20078;-92
2022/01/26 00:08:48;;;;;;;;;;;;;;;;;;;;;
2022/01/26 00:11:20;;;;;;;61.05;25.00;;;;;;;2.07;99.83;101970.13;5105530;28;20083;-92
2022/01/26 00:13:48;;;;;;;65.63;25.08;;;;;;;2.01;99.68;101963.13;5103602;28;20052;-91
2022/01/26 00:16:39;;;;;;;67.15;25.67;;;;;;;1.99;99.92;101950.91;5121234;28;20040;-94
2022/01/26 00:19:05;;;;;;;59.50;24.85;;;;;;;1.99;99.90;101943.94;5119052;28;20044;-90
2022/01/26 00:21:40;;;;;;;59.05;24.90;;;;;;;2.06;100.00;101957.94;5116525;28;20086;-90
2022/01/26 00:27:05;;;;;;;66.60;24.75;;;;;;;2.23;99.48;101973.81;5115052;28;20043;-94
2022/01/26 00:29:48;;;;;;;60.67;24.45;;;;;;;2.07;99.40;101951.84;5099453;28;20047;-92
2022/01/26 00:41:04;;;;;;;59.83;22.67;;;;;;;1.86;97.99;101923.75;5110378;28;20052;-91
2022/01/26 00:43:33;;;;;;;57.35;23.10;;;;;;;1.90;98.64;101935.09;5107137;28;20047;-90
2022/01/26 00:46:07;;;;;;;52.50;22.33;;;;;;;1.86;99.14;101934.19;5092587;28;20540;-90
2022/01/26 00:48:42;;;;;;;53.47;22.05;;;;;;;2.08;98.41;101974.50;5110770;28;20063;-91
2022/01/26 00:51:14;;;;;;;54.67;23.27;;;;;;;2.02;98.69;101953.56;5084554;28;20105;-90
2022/01/26 00:53:49;;;;;;;57.70;22.45;;;;;;;1.89;98.41;101928.13;5113315;28;20054;-89
2022/01/26 00:56:19;;;;;;;50.25;19.38;;;;;;;2.02;98.14;101953.56;5104364;28;20715;-91
2022/01/26 00:58:49;;;;;;;50.67;20.08;;;;;;;1.85;98.01;101939.38;5102640;28;20736;-92
2022/01/26 01:01:16;;;;;;;47.58;20.77;;;;;;;2.05;97.75;101971.84;5111666;28;20150;-90
2022/01/26 01:03:47;;;;;;;53.78;20.25;;;;;;;2.04;97.45;101977.97;5084437;28;20043;-90
2022/01/26 01:06:28;;;;;;;50.60;20.73;;;;;;;2.06;98.11;101986.66;5105087;28;20063;-90
2022/01/26 01:08:57;;;;;;;47.17;20.00;;;;;;;1.74;98.08;101941.84;5104347;28;20100;-91
2022/01/26 01:11:27;;;;;;;55.22;22.63;;;;;;;1.72;99.01;101939.22;5102584;28;20048;-92
2022/01/26 01:13:56;;;;;;;51.65;21.48;;;;;;;1.72;98.75;101941.84;5111197;28;20454;-91
2022/01/26 01:16:24;;;;;;;52.58;20.52;;;;;;;1.93;99.08;101990.00;5103386;28;20040;-93
2022/01/26 01:19:04;;;;;;;47.30;21.40;;;;;;;1.72;98.66;101933.13;5088956;28;20482;-92
2022/01/26 01:24:59;;;;;;;43.17;17.45;;;;;;;1.93;98.71;101985.63;5103845;28;20048;-92
2022/01/26 01:30:40;;;;;;;53.47;20.20;;;;;;;1.67;98.88;101956.56;5106839;28;20048;-91
2022/01/26 01:33:13;;;;;;;51.95;20.73;;;;;;;1.86;98.06;101983.81;5100533;28;20062;-91
2022/01/26 01:35:43;;;;;;;52.42;20.88;;;;;;;1.65;98.64;101944.34;5085376;28;20039;-92
2022/01/26 01:38:17;;;;;;;54.75;21.20;;;;;;;1.92;99.02;102004.78;5096508;28;20044;-90
2022/01/26 01:40:46;;;;;;;;;;;;;;;1.89;99.61;102009.94;5087180;28;20039;-91
2022/01/26 01:43:15;;;;;;;52.13;21.08;;;;;;;1.84;100.00;101992.47;5098231;28;19924;-91
2022/01/26 01:45:47;;;;;;;52.75;21.10;;;;;;;1.84;100.00;102003.81;5091628;28;20047;-91
2022/01/26 01:48:21;;;;;;;55.97;22.50;;;;;;;1.85;99.93;102007.31;5087506;28;20052;-92
2022/01/26 01:50:53;;;;;;;55.10;21.70;;;;;;;1.69;100.00;101985.31;5087276;28;20130;-89
2022/01/26 01:53:28;;;;;;;51.35;21.77;;;;;;;1.56;100.00;101947.69;5107086;28;20078;-92
2022/01/26 01:55:55;;;;;;;48.42;21.25;;;;;;;1.70;100.00;101977.50;5109121;28;20104;-90
2022/01/26 01:58:23;;;;;;;48.65;20.83;;;;;;;1.69;100.00;101986.19;5110781;28;20047;-91
2022/01/26 02:01:08;;;;;;;51.78;21.33;;;;;;;1.79;100.00;102009.81;5102266;28;20055;-91
2022/01/26 02:03:42;;;;;;;48.80;21.15;;;;;;;1.64;100.00;101997.41;5106537;28;20047;-92
2022/01/26 02:06:11;;;;;;;52.92;21.73;;;;;;;1.61;100.00;102000.84;5104457;28;20486;-91
2022/01/26 02:08:42;;;;;;;53.22;22.02;;;;;;;1.49;100.00;101982.38;5106149;28;20044;-90
2022/01/26 02:11:12;;;;;;;62.13;24.20;;;;;;;1.46;100.00;101987.56;5108628;28;20046;-91
2022/01/26 02:13:50;;;;;;;57.70;22.08;;;;;;;1.47;100.00;101983.22;5101854;28;20464;-91
2022/01/26 02:16:25;;;;;;;54.17;22.20;;;;;;;1.60;100.00;102000.81;5091158;28;20052;-93
2022/01/26 02:19:21;;;;;;;52.53;20.63;;;;;;;1.53;100.00;101993.78;5100522;28;20071;-91
2022/01/26 02:59:57;;;;;;;52.85;20.42;;;;;;;1.31;100.00;101935.13;5090051;28;20052;-94
2022/01/26 03:04:58;;;;;;;51.33;20.03;;;;;;;1.46;100.00;101964.06;5081505;28;20551;-90
2022/01/26 03:10:21;;;;;;;49.30;19.83;;;;;;;1.21;100.00;101944.56;5090558;28;20048;-91
2022/01/26 03:13:11;;;;;;;49.97;19.98;;;;;;;1.30;100.00;101955.13;5090642;28;20052;-92
2022/01/26 03:15:50;;;;;;;50.15;20.73;;;;;;;1.29;100.00;101953.38;5073968;28;20071;-91
2022/01/26 03:21:06;;;;;;;47.00;18.77;;;;;;;1.24;100.00;101922.84;5088570;28;20116;-90
2022/01/26 03:34:20;;;;;;;48.00;18.30;;;;;;;1.27;100.00;101912.44;5095978;28;20131;-91
2022/01/26 03:36:56;;;;;;;43.47;18.10;;;;;;;1.42;100.00;101937.03;5089846;28;20051;-91
2022/01/26 03:39:25;;;;;;;45.97;18.27;;;;;;;1.27;100.00;101912.44;5087843;28;20058;-93
2022/01/26 03:42:06;;;;;;;44.10;18.25;;;;;;;1.54;100.00;101951.16;5097353;28;20044;-93
2022/01/26 03:44:36;;;;;;;37.67;17.65;;;;;;;1.44;100.00;101946.63;5085151;28;20418;-90
2022/01/26 03:47:06;;;;;;;42.72;18.63;;;;;;;1.56;100.00;101978.16;5084841;28;20431;-91
2022/01/26 03:49:41;;;;;;;43.20;17.65;;;;;;;1.40;100.00;101944.00;5077964;28;20727;-92
2022/01/26 03:52:09;;;;;;;41.83;17.90;;;;;;;1.18;100.00;101912.31;5086380;28;20044;-90
2022/01/26 03:54:39;;;;;;;38.30;16.95;;;;;;;1.53;100.00;101963.31;5090690;28;20083;-91
2022/01/26 03:57:06;;;;;;;38.78;16.17;;;;;;;1.53;100.00;101962.44;5089377;28;20056;-90
2022/01/26 03:59:33;;;;;;;45.97;18.63;;;;;;;1.28;100.00;101911.59;5083091;28;20139;-90
2022/01/26 04:02:00;;;;;;;40.75;18.20;;;;;;;1.46;100.00;101944.91;5090096;28;20056;-91
2022/01/26 04:04:33;;;;;;;43.35;17.65;;;;;;;1.41;100.00;101947.47;5088154;28;20082;-91
2022/01/26 04:07:01;;;;;;;35.30;15.75;;;;;;;1.37;100.00;101930.00;5081230;28;20048;-93
2022/01/26 04:09:28;;;;;;;33.78;15.77;;;;;;;1.58;100.00;101974.69;5079285;28;20040;-93
2022/01/26 04:11:55;;;;;;;35.55;16.35;;;;;;;1.40;100.00;101953.56;5067750;28;20044;-91
2022/01/26 04:14:27;;;;;;;36.90;16.50;;;;;;;1.29;100.00;101937.72;5078888;28;20052;-90
2022/01/26 04:16:56;;;;;;;33.10;15.90;;;;;;;1.16;100.00;101908.78;5068840;28;20044;-92
2022/01/26 04:19:27;;;;;;;40.33;16.33;;;;;;;1.12;100.00;101913.06;5078046;28;20671;-90
2022/01/26 04:24:33;;;;;;;35.72;16.40;;;;;;;1.36;100.00;101968.28;5086209;28;20100;-90
2022/01/26 04:27:20;;;;;;;35.17;15.93;;;;;;;1.23;100.00;101924.59;5080355;28;20043;-92
2022/01/26 04:29:48;;;;;;;35.15;15.77;;;;;;;1.34;100.00;101946.50;5080874;28;20501;-93
2022/01/26 04:32:37;;;;;;;40.70;16.30;;;;;;;1.42;100.00;101955.31;5088953;28;20048;-92
2022/01/26 04:35:08;;;;;;;42.80;17.73;;;;;;;1.22;100.00;101914.13;5077870;28;20048;-91
2022/01/26 04:40:10;;;;;;;39.97;16.52;;;;;;;1.26;100.00;101914.16;5080599;28;20073;-92
2022/01/26 04:42:50;;;;;;;41.75;17.48;;;;;;;1.23;100.00;101910.66;5088882;28;20052;-91
2022/01/26 04:45:17;;;;;;;32.38;16.60;;;;;;;1.41;100.00;101929.22;5088873;28;20048;-92
2022/01/26 04:47:45;;;;;;;35.40;15.70;;;;;;;1.39;100.00;101921.34;5098182;28;20050;-93
2022/01/26 04:50:25;;;;;;;33.50;16.10;;;;;;;1.39;100.00;101933.53;5098293;28;20044;-92
2022/01/26 04:52:52;;;;;;;36.20;16.27;;;;;;;1.22;100.00;101915.00;5089114;28;20130;-91
2022/01/26 04:55:19;;;;;;;31.40;14.60;;;;;;;1.03;100.00;101879.91;5077361;28;20047;-91
2022/01/26 04:57:50;;;;;;;34.83;15.90;;;;;;;1.12;100.00;101902.66;5085309;28;20052;-91
2022/01/26 05:00:20;;;;;;;34.38;16.65;;;;;;;0.99;100.00;101888.53;5079948;28;20049;-91
2022/01/26 05:02:51;;;;;;;36.75;16.02;;;;;;;1.11;100.00;101921.75;5086895;28;20047;-92
2022/01/26 05:05:20;;;;;;;35.88;16.17;;;;;;;0.92;100.00;101885.81;5078334;28;20052;-92
2022/01/26 05:07:50;;;;;;;36.60;16.90;;;;;;;1.17;100.00;101941.84;5081219;28;20048;-91
2022/01/26 05:10:19;;;;;;;40.35;16.33;;;;;;;1.14;100.00;101931.38;5076551;28;20067;-92
2022/01/26 05:12:46;;;;;;;39.60;17.73;;;;;;;1.21;100.00;101928.91;5077732;28;20060;-92
2022/01/26 05:15:15;;;;;;;40.25;17.60;;;;;;;1.34;100.00;101935.19;5083286;28;20454;-92
2022/01/26 05:17:46;;;;;;;39.75;17.50;;;;;;;1.31;100.00;101916.84;5080939;28;20044;-91
2022/01/26 05:20:13;;;;;;;43.22;17.92;;;;;;;1.39;100.00;101930.91;5081756;28;20063;-91
2022/01/26 05:22:41;;;;;;;44.42;17.92;;;;;;;1.20;100.00;101902.78;5093521;28;20060;-90
2022/01/26 05:25:09;;;;;;;37.47;18.13;;;;;;;1.19;100.00;101891.47;5081411;28;20121;-96
2022/01/26 05:27:39;;;;;;;39.42;17.38;;;;;;;1.00;100.00;101856.38;5089590;28;20072;-90
2022/01/26 05:30:09;;;;;;;35.53;17.13;;;;;;;1.24;100.00;101901.97;5088972;28;20037;-90
2022/01/26 05:32:36;;;;;;;41.63;17.70;;;;;;;0.99;100.00;101865.06;5063631;28;20040;-89
2022/01/26 05:35:04;;;;;;;36.72;16.77;;;;;;;1.21;100.00;101904.53;5083483;28;20124;-93
2022/01/26 05:37:35;;;;;;;38.45;17.20;;;;;;;1.10;100.00;101864.38;5077931;28;20060;-91
2022/01/26 05:40:03;;;;;;;39.80;17.23;;;;;;;1.14;100.00;101876.59;5071652;28;20135;-90
2022/01/26 05:42:31;;;;;;;38.75;17.27;;;;;;;1.11;100.00;101877.41;5082505;28;20109;-90
2022/01/26 05:45:03;;;;;;;42.72;17.83;;;;;;;1.11;100.00;101885.22;5085971;28;20598;-91
2022/01/26 05:47:34;;;;;;;39.80;17.63;;;;;;;1.09;100.00;101893.91;5091387;28;20413;-91
2022/01/26 05:50:01;;;;;;;39.13;17.02;;;;;;;1.01;100.00;101881.63;5090264;28;20036;-91
2022/01/26 05:52:29;;;;;;;34.30;16.35;;;;;;;1.03;100.00;101869.47;5093241;28;20127;-90
2022/01/26 05:54:56;;;;;;;33.78;16.42;;;;;;;1.23;100.00;101916.75;5094633;28;20044;-91
2022/01/26 05:57:23;;;;;;;38.45;16.50;;;;;;;1.03;100.00;101889.47;5096665;28;20060;-91
2022/01/26 05:59:53;;;;;;;35.40;16.83;;;;;;;0.95;100.00;101863.25;5100395;28;20071;-92
2022/01/26 06:02:20;;;;;;;36.70;15.73;;;;;;;0.90;100.00;101864.94;5090592;28;20491;-92
2022/01/26 06:04:47;;;;;;;36.88;16.92;;;;;;;1.33;100.00;101933.41;5092852;28;20444;-90
2022/01/26 06:07:18;;;;;;;32.85;15.68;;;;;;;1.11;100.00;101885.22;5093982;28;20460;-91
2022/01/26 06:09:45;;;;;;;32.10;16.08;;;;;;;0.99;100.00;101870.28;5091985;28;20055;-91
2022/01/26 06:12:22;;;;;;;34.45;16.80;;;;;;;1.11;100.00;101897.41;5094833;28;20044;-91
2022/01/26 06:14:52;;;;;;;37.58;17.23;;;;;;;0.89;100.00;101868.38;5095622;28;20048;-91
2022/01/26 06:17:20;;;;;;;34.00;16.50;;;;;;;0.85;100.00;101861.38;5089867;28;20126;-91
2022/01/26 06:19:49;;;;;;;35.95;16.60;;;;;;;1.20;100.00;101919.31;5079371;28;20101;-91
2022/01/26 06:22:16;;;;;;;34.25;16.00;;;;;;;0.98;100.00;101871.13;5087036;28;20341;-91
2022/01/26 06:24:42;;;;;;;32.70;16.05;;;;;;;1.11;100.00;101897.41;5095260;28;20051;-95
2022/01/26 06:27:11;;;;;;;32.15;15.50;;;;;;;1.15;100.00;101907.03;5088776;28;20491;-91
2022/01/26 06:29:37;;;;;;;33.08;15.43;;;;;;;0.94;100.00;101887.59;5093768;28;20060;-92
2022/01/26 06:32:07;;;;;;;29.88;14.80;;;;;;;1.42;100.00;101950.09;5089947;28;20044;-92
2022/01/26 06:34:55;;;;;;;32.17;15.70;;;;;;;1.11;100.00;101905.22;5083983;28;20109;-92
2022/01/26 06:37:22;;;;;;;31.17;15.10;;;;;;;1.42;100.00;101966.63;5091574;28;20063;-91
2022/01/26 06:39:49;;;;;;;30.48;15.23;;;;;;;1.15;100.00;101927.91;5080917;28;20040;-91
2022/01/26 06:42:20;;;;;;;28.48;14.55;;;;;;;1.15;100.00;101934.00;5092347;28;20052;-93
2022/01/26 06:44:57;;;;;;;32.50;14.73;;;;;;;1.12;100.00;101944.38;5091902;28;20072;-91
2022/01/26 06:50:09;;;;;;;33.20;15.55;;;;;;;1.03;100.00;101932.09;5110715;28;20062;-91
2022/01/26 06:52:43;;;;;;;32.72;15.73;;;;;;;1.11;100.00;101941.75;5109046;28;20051;-92
2022/01/26 06:55:11;;;;;;;33.85;15.85;;;;;;;1.24;100.00;101962.00;5103313;28;20059;-91
2022/01/26 06:57:41;;;;;;;32.70;15.63;;;;;;;1.34;100.00;101987.38;5106060;28;20043;-92
2022/01/26 07:00:10;;;;;;;31.33;14.98;;;;;;;1.20;100.00;101960.19;5112727;27;20043;-91
2022/01/26 07:02:39;;;;;;;34.33;16.13;;;;;;;1.34;100.00;101995.19;5114068;28;20047;-91
2022/01/26 07:05:08;;;;;;;35.05;17.25;;;;;;;1.25;100.00;101968.97;5105045;28;20512;-91
2022/01/26 07:07:40;;;;;;;33.67;16.35;;;;;;;1.13;100.00;101951.34;5114721;28;20142;-91
2022/01/26 07:10:09;;;;;;;30.70;15.55;;;;;;;1.32;100.00;101968.19;5102688;28;20051;-91
2022/01/26 07:12:37;;;;;;;34.95;15.23;;;;;;;1.35;100.00;101976.97;5109827;28;20151;-90
2022/01/26 07:21:25;;;;;;;38.42;17.95;;;;;;;1.34;100.00;101954.31;5115306;28;20055;-92
2022/01/26 07:24:01;;;;;;;32.67;16.73;;;;;;;1.29;100.00;101926.38;5117362;27;20043;-93
2022/01/26 07:26:31;;;;;;;33.42;15.73;;;;;;;1.34;100.00;101936.06;5108738;28;20039;-92
2022/01/26 07:29:07;;;;;;;33.45;15.25;;;;;;;1.67;100.00;101985.28;5111262;27;20059;-93
2022/01/26 07:31:38;;;;;;;33.17;15.82;;;;;;;1.59;100.00;101960.78;5099282;28;20032;-91
2022/01/26 07:34:06;;;;;;;30.88;15.15;;;;;;;1.61;100.00;101961.69;5116586;28;20059;-92
2022/01/26 07:36:59;;;;;;;32.88;15.70;;;;;;;1.53;100.00;101950.25;5110964;28;20055;-92
2022/01/26 07:39:42;;;;;;;31.10;15.30;;;;;;;1.44;100.00;101930.97;5085635;28;20093;-93
2022/01/26 07:42:12;;;;;;;32.17;15.93;;;;;;;1.60;99.69;101941.66;5109821;28;20044;-92
2022/01/26 07:44:40;;;;;;;32.30;15.25;;;;;;;1.70;100.00;101961.84;5092567;28;20488;-91
2022/01/26 07:47:12;;;;;;;37.00;16.30;;;;;;;1.43;100.00;101898.75;5101636;27;20048;-93
2022/01/26 07:49:41;;;;;;;34.25;16.42;;;;;;;1.48;99.57;101902.31;5109499;28;20480;-92
2022/01/26 07:52:14;;;;;;;31.55;15.35;;;;;;;1.47;100.00;101911.00;5109040;28;20115;-90
2022/01/26 07:55:14;;;;;;;30.08;15.90;;;;;;;1.62;100.00;101913.81;5091352;28;20055;-92
2022/01/26 07:57:54;;;;;;;29.15;14.52;;;;;;;1.71;99.00;101932.25;5086098;28;20067;-91
2022/01/26 08:00:26;;;;;;;34.05;15.27;;;;;;;1.69;97.92;101933.97;5091168;28;20807;-90
2022/01/26 08:03:02;;;;;;;28.90;14.10;;;;;;;1.86;97.80;101973.38;5114355;28;20054;-92
2022/01/26 08:05:34;;;;;;;29.85;15.25;;;;;;;1.62;97.70;101926.88;5118199;28;20040;-92
2022/01/26 08:08:01;;;;;;;32.92;15.48;;;;;;;1.44;97.77;101876.13;5131864;28;20044;-92
2022/01/26 08:11:02;;;;;;;31.42;15.25;;;;;;;1.80;98.68;101936.72;5128270;28;20052;-93
2022/01/26 08:13:53;;;;;;;29.30;14.70;;;;;;;1.84;98.23;101929.78;5114855;28;20051;-93
2022/01/26 08:16:44;;;;;;;31.45;14.40;;;;;;;1.92;97.45;101957.75;5124710;28;20054;-92
2022/01/26 08:19:16;;;;;;;;;;;;;;;1.98;96.76;101973.53;5128243;27;20118;-93
2022/01/26 08:21:45;;;;;;;27.52;14.60;;;;;;;1.99;96.94;101977.00;5116962;28;19935;-92
2022/01/26 08:24:14;;;;;;;25.50;13.77;;;;;;;1.91;97.58;101965.56;5120486;28;20066;-92
2022/01/26 08:26:48;;;;;;;31.55;14.93;;;;;;;2.01;97.49;101976.19;5115254;28;20104;-92
2022/01/26 08:29:21;;;;;;;28.77;14.23;;;;;;;1.68;96.93;101900.00;5104696;27;20048;-93
2022/01/26 08:32:00;;;;;;;29.08;13.38;;;;;;;1.81;96.25;101919.31;5118160;28;20043;-91
2022/01/26 08:35:04;;;;;;;23.60;13.02;;;;;;;1.81;95.60;101928.00;5109604;28;20430;-93
2022/01/26 08:37:33;;;;;;;25.08;12.90;;;;;;;2.01;95.04;101957.03;5118625;28;20502;-93
2022/01/26 08:40:08;;;;;;;25.20;13.10;;;;;;;1.89;95.76;101934.19;5113253;28;20051;-92
2022/01/26 08:42:37;;;;;;;27.50;13.00;;;;;;;1.91;95.54;101934.22;5114367;28;20040;-93
2022/01/26 08:45:06;;;;;;;24.88;12.68;;;;;;;2.02;95.39;101954.44;5116826;28;20040;-91
2022/01/26 08:47:39;;;;;;;25.85;13.02;;;;;;;1.98;95.48;101936.94;5109538;28;20060;-92
2022/01/26 08:50:11;;;;;;;20.23;11.27;;;;;;;2.02;93.85;101943.09;5104641;28;20064;-94
2022/01/26 08:52:49;;;;;;;;;;;;;;;;;;;;;
2022/01/26 08:59:05;;;;;;;21.33;10.05;;;;;;;2.00;91.84;101950.03;5106696;28;20059;-92
2022/01/26 09:01:37;;;;;;;19.00;10.50;;;;;;;2.02;92.08;101940.50;5110309;28;20055;-92
2022/01/26 09:04:29;;;;;;;13.18;7.28;;;;;;;1.72;91.03;101902.66;5101684;28;20050;-92
2022/01/26 09:07:01;;;;;;;10.57;6.38;;;;;;;1.92;89.62;101920.31;5123011;28;20456;-94
2022/01/26 09:10:07;;;;;;;11.82;6.80;;;;;;;2.12;90.39;101965.88;5102830;28;20092;-93
2022/01/26 09:12:41;;;;;;;9.93;6.10;;;;;;;1.90;88.33;101898.50;5117048;28;20042;-91
2022/01/26 09:15:16;;;;;;;8.93;5.80;;;;;;;2.02;87.94;101916.97;5111022;28;20040;-91
2022/01/26 09:17:46;;;;;;;10.55;6.05;;;;;;;1.99;86.99;101903.88;5112392;28;20047;-94
2022/01/26 09:20:39;;;;;;;8.88;5.63;;;;;;;2.17;87.07;101948.50;5108685;28;20078;-96
2022/01/26 09:26:27;;;;;;;11.05;6.53;;;;;;;2.02;87.47;101956.16;4997727;23;20062;-94
2022/01/26 09:28:55;;;;;;;12.40;7.72;;;;;;;2.27;87.47;102001.75;4969900;28;20046;-93
2022/01/26 09:31:34;;;;;;;14.82;7.40;;;;;;;2.28;86.59;101985.22;4977717;28;20042;-95
2022/01/26 09:34:35;;;;;;;11.02;7.25;;;;;;;2.13;85.84;101954.56;4957504;28;20066;-93
2022/01/26 09:37:37;;;;;;;13.32;7.50;;;;;;;2.26;87.16;101979.09;4976628;28;20046;-95
2022/01/26 09:40:14;;;;;;;12.60;7.05;;;;;;;2.41;86.59;102021.09;4976244;28;20085;-94
2022/01/26 09:43:33;;;;;;;10.55;6.95;;;;;;;2.09;86.14;101964.09;4948949;28;20051;-94
2022/01/26 09:46:25;;;;;;;13.18;7.35;;;;;;;2.35;86.34;101990.56;4938543;28;20130;-93
2022/01/26 09:49:08;;;;;;;11.73;7.68;;;;;;;2.10;86.28;101939.72;4974148;28;20046;-93
2022/01/26 09:52:02;;;;;;;15.02;7.57;;;;;;;2.51;85.51;102016.88;4936081;28;20055;-94
2022/01/26 09:54:38;;;;;;;13.48;7.47;;;;;;;2.14;84.36;101935.41;4969032;28;20058;-93
2022/01/26 09:57:44;;;;;;;;;;;;;;;;;;;;;
2022/01/26 10:00:40;;;;;;;16.85;8.68;;;;;;;2.21;83.26;101959.84;4963319;28;20095;-95
2022/01/26 10:03:35;;;;;;;18.15;9.88;;;;;;;2.11;84.06;101953.66;4970483;28;20081;-96
2022/01/26 10:06:24;;;;;;;19.98;10.63;;;;;;;2.11;83.81;101961.50;4976950;28;20054;-95
2022/01/26 10:09:38;;;;;;;17.98;10.05;;;;;;;2.41;83.93;102010.66;4978575;28;20051;-95
2022/01/26 10:18:36;;;;;;;20.33;11.50;;;;;;;2.20;83.65;101945.94;4969567;28;20510;-95
2022/01/26 10:21:10;;;;;;;24.58;12.18;;;;;;;2.32;84.05;101971.34;4962718;28;20117;-95
2022/01/26 10:23:42;;;;;;;20.45;11.07;;;;;;;2.17;85.24;101940.66;4988534;28;20073;-92
2022/01/26 10:30:14;;;;;;;25.10;12.13;;;;;;;2.20;84.24;101955.50;4983697;28;20082;-96
2022/01/26 10:32:50;;;;;;;26.05;13.23;;;;;;;2.38;84.37;101968.78;4997881;28;20051;-94
2022/01/26 10:36:01;;;;;;;22.60;12.25;;;;;;;2.20;84.30;101942.44;4991900;28;20069;-95
2022/01/26 10:38:33;;;;;;;22.83;11.80;;;;;;;2.60;83.45;102011.75;4980122;28;20051;-96
2022/01/26 10:44:17;;;;;;;28.23;13.45;;;;;;;2.20;83.65;101932.88;5736319;23;20051;-96
2022/01/26 10:53:12;;;;;;;25.58;12.93;;;;;;;2.69;83.00;101998.75;4996402;23;20049;-94
2022/01/26 10:55:42;;;;;;;27.92;14.73;;;;;;;2.34;83.76;101933.03;4980855;28;20439;-92
2022/01/26 10:58:22;;;;;;;28.00;14.60;;;;;;;2.36;83.07;101924.31;4970380;28;20273;-95
2022/01/26 11:00:57;;;;;;;26.80;13.73;;;;;;;2.29;83.72;101932.09;4967453;28;20046;-95
2022/01/26 11:03:28;;;;;;;26.40;14.15;;;;;;;2.45;84.57;101966.25;4981764;28;20043;-95
2022/01/26 11:06:09;;;;;;;23.50;11.90;;;;;;;2.34;86.65;101957.44;4976668;28;20144;-93
2022/01/26 11:08:40;;;;;;;21.02;12.75;;;;;;;2.31;87.93;101961.75;4955992;28;20055;-94
2022/01/26 11:11:18;;;;;;;24.77;13.15;;;;;;;2.11;88.17;101940.59;4957683;28;20047;-92
2022/01/26 11:13:49;;;;;;;23.23;13.03;;;;;;;2.25;88.65;101979.94;4973475;28;20045;-93
2022/01/26 11:16:50;;;;;;;24.27;13.55;;;;;;;2.13;88.74;101948.44;4972673;28;20106;-91
2022/01/26 11:19:19;;;;;;;23.15;13.20;;;;;;;2.30;88.45;101971.31;4938476;28;20046;-95
2022/01/26 11:24:52;;;;;;;23.13;12.65;;;;;;;2.34;88.97;101967.88;4936499;29;20058;-93
2022/01/26 11:27:20;;;;;;;27.15;14.07;;;;;;;2.41;88.81;101995.84;4935443;29;20138;-91
2022/01/26 11:29:53;;;;;;;25.35;13.90;;;;;;;2.20;89.01;101963.34;4936698;29;20052;-92
2022/01/26 11:32:35;;;;;;;23.27;12.75;;;;;;;2.22;89.01;101967.72;4937972;29;20051;-92
2022/01/26 11:35:08;;;;;;;26.23;13.98;;;;;;;2.15;89.25;101950.22;4939139;29;20048;-93
2022/01/26 11:37:52;;;;;;;25.40;14.43;;;;;;;2.02;90.18;101932.66;4925109;29;20079;-96
2022/01/26 11:46:12;;;;;;;23.90;13.32;;;;;;;1.85;89.63;101908.94;4934252;29;20075;-94
2022/01/26 11:48:41;;;;;;;22.15;12.27;;;;;;;2.06;89.48;101952.72;4934283;29;20115;-95
2022/01/26 11:51:08;;;;;;;22.63;12.40;;;;;;;2.05;89.69;101948.34;4931936;29;20095;-93
2022/01/26 11:53:50;;;;;;;21.90;12.27;;;;;;;1.98;89.65;101933.47;4918845;29;20043;-94
2022/01/26 11:56:23;;;;;;;21.52;12.25;;;;;;;1.98;89.61;101934.34;4934816;29;20084;-95
2022/01/26 11:58:53;;;;;;;23.10;12.75;;;;;;;2.23;89.63;101976.44;4923826;29;20048;-95
2022/01/26 12:01:41;;;;;;;22.88;13.23;;;;;;;2.35;88.69;101987.06;4935564;29;20047;-95
2022/01/26 12:04:15;;;;;;;20.85;12.10;;;;;;;2.26;88.91;101966.91;4932402;29;20186;-94
2022/01/26 12:06:56;;;;;;;21.13;12.00;;;;;;;2.25;89.14;101962.53;4934072;29;20395;-94
2022/01/26 12:09:35;;;;;;;23.10;12.18;;;;;;;2.25;88.43;101951.19;4934667;29;20044;-94
2022/01/26 12:12:05;;;;;;;20.45;11.43;;;;;;;2.08;88.29;101932.69;4936383;29;20115;-95
2022/01/26 12:14:34;;;;;;;20.23;11.90;;;;;;;2.32;88.62;101980.06;4935147;29;20052;-94
2022/01/26 12:17:04;;;;;;;20.75;12.45;;;;;;;2.23;88.42;101959.03;4919796;29;20531;-94
2022/01/26 12:19:47;;;;;;;22.33;12.00;;;;;;;2.21;87.99;101952.00;4924656;29;20047;-95
2022/01/26 12:36:34;;;;;;;23.40;12.88;;;;;;;2.40;89.25;101991.47;4935496;29;20459;-95
2022/01/26 12:39:11;;;;;;;22.05;11.77;;;;;;;2.37;87.67;101985.31;4936938;29;20063;-94
2022/01/26 12:41:47;;;;;;;21.45;11.50;;;;;;;2.34;87.99;101982.69;4939905;29;20715;-94
2022/01/26 12:44:17;;;;;;;19.90;11.63;;;;;;;2.29;88.61;101974.78;4937877;29;20075;-95
2022/01/26 12:47:00;;;;;;;24.13;12.43;;;;;;;2.12;88.12;101942.34;4938474;29;20079;-94
2022/01/26 12:49:40;;;;;;;23.33;12.38;;;;;;;2.29;88.22;101973.91;4941966;29;20051;-94
2022/01/26 12:55:05;;;;;;;19.55;11.85;;;;;;;2.37;88.25;101975.75;4936383;29;20246;-94
2022/01/26 12:57:47;;;;;;;21.60;13.05;;;;;;;2.17;88.80;101932.84;4946451;29;20048;-94
2022/01/26 13:00:42;;;;;;;23.85;13.00;;;;;;;2.38;88.42;101959.19;4946683;29;20060;-93
2022/01/26 13:03:16;;;;;;;21.15;12.25;;;;;;;2.60;87.65;101981.25;4956915;29;20051;-94
2022/01/26 13:05:45;;;;;;;23.10;12.85;;;;;;;2.38;87.09;101933.06;4940794;29;20046;-94
2022/01/26 13:08:15;;;;;;;22.55;12.40;;;;;;;2.58;87.14;101972.50;4943101;29;20056;-94
2022/01/26 13:11:03;;;;;;;21.30;11.38;;;;;;;2.47;87.50;101964.56;4938173;29;20048;-94
2022/01/26 13:13:36;;;;;;;25.75;13.32;;;;;;;2.60;88.05;101975.13;4943140;29;20039;-95
2022/01/26 13:16:33;;;;;;;23.77;13.75;;;;;;;2.69;87.72;102006.59;4926887;29;20115;-95
2022/01/26 13:27:37;;;;;;;30.90;16.17;;;;;;;2.35;84.12;101959.19;4945325;29;20056;-94
2022/01/26 13:30:25;;;;;;;;;;;;;;;2.71;84.47;102012.72;4949802;29;20048;-93
2022/01/26 13:35:40;;;;;;;32.78;15.45;;;;;;;2.66;82.96;101975.22;4949063;29;20075;-95
2022/01/26 13:42:53;;;;;;;30.13;13.65;;;;;;;2.52;80.78;101904.44;4938918;29;20075;-94
2022/01/26 13:45:42;;;;;;;28.30;14.32;;;;;;;2.45;80.79;101895.69;4934683;29;20048;-94
2022/01/26 13:53:35;;;;;;;30.10;15.32;;;;;;;2.75;80.08;101944.78;4936694;29;20048;-92
2022/01/26 13:56:10;;;;;;;30.20;13.75;;;;;;;2.75;80.29;101933.44;4936442;29;20060;-93
2022/01/26 13:58:48;;;;;;;30.90;14.43;;;;;;;2.60;79.81;101901.91;4937833;29;20137;-94
2022/01/26 14:01:18;;;;;;;32.15;14.27;;;;;;;2.89;79.19;101955.38;4941920;28;20114;-94
2022/01/26 14:04:02;;;;;;;31.58;15.23;;;;;;;2.43;79.30;101889.53;4946502;29;20479;-93
2022/01/26 14:06:38;;;;;;;33.65;16.08;;;;;;;2.59;79.22;101894.94;4937778;29;20067;-94
2022/01/26 14:09:20;;;;;;;32.15;15.70;;;;;;;2.60;79.61;101912.38;4943239;29;20051;-93
2022/01/26 14:11:53;;;;;;;35.22;15.90;;;;;;;2.70;79.47;101935.13;4940580;29;20069;-94
2022/01/26 14:14:29;;;;;;;30.65;15.13;;;;;;;2.65;79.69;101931.59;4943611;29;20554;-94
2022/01/26 14:17:01;;;;;;;34.53;15.80;;;;;;;2.80;80.48;101965.75;4938058;29;20051;-95
2022/01/26 14:22:48;;;;;;;33.88;15.95;;;;;;;2.60;80.16;101918.47;4939415;29;20044;-92
2022/01/26 14:25:29;;;;;;;36.58;16.75;;;;;;;2.60;79.42;101921.09;4916221;29;20058;-94
2022/01/26 14:28:09;;;;;;;36.53;16.35;;;;;;;2.79;79.51;101953.53;4918396;29;20044;-94
2022/01/26 15:12:25;;;;;;;34.97;16.02;;;;;;;2.69;77.61;101892.41;4925882;29;20112;-93
2022/01/26 21:36:13;;;;;;;33.22;17.00;;;;;;;2.07;81.33;101873.47;5844400;23;20150;31
2022/01/26 21:51:00;;;;;;;34.00;16.92;;;;;;;1.84;81.36;101831.41;4846834;29;20082;-95
2022/01/26 21:53:56;;;;;;;33.97;17.35;;;;;;;1.76;81.22;101815.66;4841787;29;20064;-95
2022/01/26 22:08:21;;;;;;;34.08;17.15;;;;;;;1.94;82.09;101858.50;5851660;23;20029;-94
2022/01/26 22:11:16;;;;;;;33.90;16.63;;;;;;;1.60;81.03;101803.28;4846943;29;20069;-96